Time;durP1;ratioP1;P1;durP2;ratioP2;P2;SDS_P1;SDS_P2;PMS_P1;PMS_P2;Temp;Humidity;BMP_temperature;BMP_pressure;BME280_temperature;BME280_humidity;BME280_pressure;Samples;Min_cycle;Max_cycle;Signal;HPM_P1;HPM_P2
2023/10/23 04:37:05;;;;;;;8.13;1.50;;;;;;;;;;5142367;27;20208;-84
2023/10/23 04:39:31;;;;;;;13.57;2.28;;;;;;;;;;5122238;27;20451;-83
2023/10/23 04:41:57;;;;;;;7.60;2.38;;;;;;;;;;5124411;27;20625;-84
2023/10/23 04:44:22;;;;;;;5.68;2.30;;;;;;;;;;5124722;27;20109;-83
2023/10/23 04:46:48;;;;;;;3.65;1.88;;;;;;;;;;5136396;27;20033;-84
2023/10/23 04:49:13;;;;;;;5.18;2.28;;;;;;;;;;5124281;27;20034;-83
2023/10/23 04:51:38;;;;;;;13.07;3.10;;;;;;;;;;5143867;27;20027;-84
2023/10/23 04:54:04;;;;;;;2.00;1.45;;;;;;;;;;5128025;27;20439;-84
2023/10/23 04:56:29;;;;;;;2.40;1.40;;;;;;;;;;5120928;27;20362;-82
2023/10/23 04:58:56;;;;;;;4.18;2.20;;;;;;;;;;5112304;27;20027;-83
2023/10/23 05:01:22;;;;;;;4.30;1.80;;;;;;;;;;5144278;27;20030;-83
2023/10/23 05:03:47;;;;;;;3.00;1.85;;;;;;;;;;5117795;27;20084;-83
2023/10/23 05:06:13;;;;;;;8.02;2.58;;;;;;;;;;5121032;27;20024;-82
2023/10/23 05:08:38;;;;;;;4.20;2.78;;;;;;;;;;5136680;27;20027;-83
2023/10/23 05:11:05;;;;;;;5.13;1.95;;;;;;;;;;5125103;27;20710;-83
2023/10/23 05:13:30;;;;;;;5.63;2.20;;;;;;;;;;5135521;27;20376;-82
2023/10/23 05:16:04;;;;;;;3.55;2.05;;;;;;;;;;5125593;27;20136;-82
2023/10/23 05:18:30;;;;;;;1.30;1.20;;;;;;;;;;5136967;27;20019;-82
2023/10/23 05:20:56;;;;;;;7.47;2.20;;;;;;;;;;5117419;27;20371;-80
2023/10/23 05:23:21;;;;;;;5.07;2.03;;;;;;;;;;5129438;27;20038;-81
2023/10/23 05:25:48;;;;;;;3.72;1.73;;;;;;;;;;5142338;27;20109;-81
2023/10/23 05:28:13;;;;;;;2.45;2.00;;;;;;;;;;5134790;27;20027;-83
2023/10/23 05:30:39;;;;;;;3.90;1.83;;;;;;;;;;5123580;27;20030;-81
2023/10/23 05:33:04;;;;;;;7.25;1.65;;;;;;;;;;5143550;27;20083;-81
2023/10/23 05:35:29;;;;;;;1.70;1.38;;;;;;;;;;5140652;27;20815;-81
2023/10/23 05:37:55;;;;;;;2.58;2.00;;;;;;;;;;5120629;27;20100;-82
2023/10/23 05:40:20;;;;;;;3.92;1.98;;;;;;;;;;5135569;27;20023;-81
2023/10/23 05:42:46;;;;;;;6.53;2.83;;;;;;;;;;5140503;27;20026;-82
2023/10/23 05:45:11;;;;;;;6.50;2.38;;;;;;;;;;5139680;27;20474;-82
2023/10/23 05:47:37;;;;;;;4.43;1.88;;;;;;;;;;5129487;27;20106;-82
2023/10/23 05:50:04;;;;;;;3.72;1.80;;;;;;;;;;5127169;27;20520;-82
2023/10/23 05:52:29;;;;;;;8.40;2.33;;;;;;;;;;5124060;27;20023;-82
2023/10/23 05:54:55;;;;;;;7.90;2.15;;;;;;;;;;5125293;27;20039;-82
2023/10/23 05:57:20;;;;;;;4.53;2.13;;;;;;;;;;5128315;27;20392;-81
2023/10/23 05:59:46;;;;;;;5.43;1.65;;;;;;;;;;5122475;27;20356;-82
2023/10/23 06:02:11;;;;;;;2.20;1.42;;;;;;;;;;5123660;27;20026;-82
2023/10/23 06:04:37;;;;;;;8.25;2.28;;;;;;;;;;5123803;27;20019;-83
2023/10/23 06:07:02;;;;;;;3.70;2.03;;;;;;;;;;5101365;27;20060;-82
2023/10/23 06:09:30;;;;;;;6.00;1.88;;;;;;;;;;5107220;27;20024;-82
2023/10/23 06:11:56;;;;;;;5.30;2.45;;;;;;;;;;5101601;27;20134;-82
2023/10/23 06:14:21;;;;;;;3.38;1.85;;;;;;;;;;5124744;27;20111;-82
2023/10/23 06:16:47;;;;;;;10.55;2.53;;;;;;;;;;5124210;27;20088;-82
2023/10/23 06:19:13;;;;;;;5.25;2.72;;;;;;;;;;5120548;27;20462;-82
2023/10/23 06:21:38;;;;;;;4.78;2.40;;;;;;;;;;5103810;27;20039;-82
2023/10/23 06:24:04;;;;;;;3.53;2.17;;;;;;;;;;5099676;27;20031;-83
2023/10/23 06:26:30;;;;;;;12.13;2.92;;;;;;;;;;5105078;27;20034;-81
2023/10/23 06:28:56;;;;;;;11.30;2.28;;;;;;;;;;5127982;27;20104;-81
2023/10/23 06:31:21;;;;;;;3.70;2.40;;;;;;;;;;5120085;27;20538;-82
2023/10/23 06:33:47;;;;;;;4.78;2.85;;;;;;;;;;5106208;27;20575;-83
2023/10/23 06:36:12;;;;;;;15.52;3.50;;;;;;;;;;5101261;27;20051;-83
2023/10/23 06:38:38;;;;;;;10.00;3.75;;;;;;;;;;5122428;27;20110;-83
2023/10/23 06:41:07;;;;;;;11.85;3.72;;;;;;;;;;5105343;27;20034;-82
2023/10/23 06:43:34;;;;;;;7.78;3.78;;;;;;;;;;5124530;27;20046;-83
2023/10/23 06:45:59;;;;;;;15.68;3.97;;;;;;;;;;5124649;27;20115;-82
2023/10/23 06:48:25;;;;;;;7.18;3.25;;;;;;;;;;5107563;27;20538;-82
2023/10/23 06:50:50;;;;;;;11.45;3.78;;;;;;;;;;5124545;27;20027;-82
2023/10/23 06:53:16;;;;;;;5.95;3.35;;;;;;;;;;5124101;27;20023;-82
2023/10/23 06:55:49;;;;;;;17.83;3.25;;;;;;;;;;5122237;27;20479;-82
2023/10/23 06:58:14;;;;;;;11.70;2.88;;;;;;;;;;5124288;27;20027;-82
2023/10/23 07:00:40;;;;;;;5.20;2.30;;;;;;;;;;5105837;27;20382;-82
2023/10/23 07:03:05;;;;;;;7.60;2.67;;;;;;;;;;5104719;27;20031;-82
2023/10/23 07:05:31;;;;;;;15.63;2.78;;;;;;;;;;5105718;27;20613;-82
2023/10/23 07:07:56;;;;;;;5.63;2.03;;;;;;;;;;5121663;27;20110;-88
2023/10/23 07:10:22;;;;;;;6.43;2.65;;;;;;;;;;5130307;27;20084;-88
2023/10/23 07:12:47;;;;;;;5.82;2.10;;;;;;;;;;5107724;27;20204;-84
2023/10/23 07:15:12;;;;;;;4.43;2.85;;;;;;;;;;5113764;27;20102;-87
2023/10/23 07:17:38;;;;;;;3.78;2.70;;;;;;;;;;5111352;27;20084;-87
2023/10/23 07:20:06;;;;;;;6.90;2.92;;;;;;;;;;5109624;27;20023;-87
2023/10/23 07:22:32;;;;;;;13.00;2.80;;;;;;;;;;5122273;27;20023;-87
2023/10/23 07:24:59;;;;;;;6.53;2.42;;;;;;;;;;5123315;27;20084;-86
2023/10/23 07:27:25;;;;;;;10.60;2.47;;;;;;;;;;5108050;27;20126;-86
2023/10/23 07:29:51;;;;;;;3.00;2.00;;;;;;;;;;5126270;27;20816;-88
2023/10/23 07:32:17;;;;;;;9.77;2.28;;;;;;;;;;5103526;28;20031;-87
2023/10/23 07:34:42;;;;;;;8.43;2.85;;;;;;;;;;5107925;27;20458;-86
2023/10/23 07:37:08;;;;;;;10.35;2.80;;;;;;;;;;5111105;27;20062;-86
2023/10/23 07:39:33;;;;;;;3.33;2.22;;;;;;;;;;5112136;27;20118;-88
2023/10/23 07:41:58;;;;;;;11.68;3.55;;;;;;;;;;5128399;27;20109;-87
2023/10/23 07:44:24;;;;;;;5.15;2.28;;;;;;;;;;5122680;27;20023;-86
2023/10/23 07:46:50;;;;;;;8.70;3.13;;;;;;;;;;5109964;27;20684;-85
2023/10/23 07:49:16;;;;;;;5.72;2.83;;;;;;;;;;5109535;27;20034;-88
2023/10/23 07:51:41;;;;;;;2.95;1.75;;;;;;;;;;5123321;27;20027;-87
2023/10/23 07:54:07;;;;;;;7.63;3.97;;;;;;;;;;5126050;27;20037;-86
2023/10/23 07:56:32;;;;;;;11.95;2.92;;;;;;;;;;5104285;28;20052;-87
2023/10/23 07:58:58;;;;;;;3.50;2.13;;;;;;;;;;5125765;27;20363;-87
2023/10/23 08:01:24;;;;;;;5.40;3.10;;;;;;;;;;5109696;27;20034;-88
2023/10/23 08:03:49;;;;;;;5.82;3.30;;;;;;;;;;5127129;27;20068;-87
2023/10/23 08:06:15;;;;;;;3.22;1.85;;;;;;;;;;5123623;27;20028;-87
2023/10/23 08:08:43;;;;;;;6.00;2.90;;;;;;;;;;5106267;27;20023;-86
2023/10/23 08:11:10;;;;;;;12.13;2.55;;;;;;;;;;5122291;27;20402;-87
2023/10/23 08:13:36;;;;;;;3.03;2.25;;;;;;;;;;5106403;27;20498;-87
2023/10/23 08:16:03;;;;;;;3.90;1.90;;;;;;;;;;5107297;28;20020;-86
2023/10/23 08:18:29;;;;;;;6.15;3.28;;;;;;;;;;5101480;28;20015;-88
2023/10/23 08:20:54;;;;;;;6.30;2.38;;;;;;;;;;5104326;27;20034;-87
2023/10/23 08:23:19;;;;;;;5.22;2.20;;;;;;;;;;5104303;27;20485;-87
2023/10/23 08:25:45;;;;;;;6.30;2.30;;;;;;;;;;5122733;27;20130;-87
2023/10/23 08:28:11;;;;;;;5.65;1.95;;;;;;;;;;5128887;27;20023;-87
2023/10/23 08:30:36;;;;;;;2.47;1.85;;;;;;;;;;5105985;28;20110;-87
2023/10/23 08:33:03;;;;;;;5.03;2.55;;;;;;;;;;5121294;28;20065;-88
2023/10/23 08:35:29;;;;;;;7.15;2.83;;;;;;;;;;5101714;28;20063;-88
2023/10/23 08:37:55;;;;;;;18.38;2.38;;;;;;;;;;5101368;28;20463;-87
2023/10/23 08:40:21;;;;;;;8.93;2.60;;;;;;;;;;5101691;28;20063;-86
2023/10/23 08:42:47;;;;;;;7.68;2.65;;;;;;;;;;5101292;28;20019;-86
2023/10/23 08:45:14;;;;;;;3.55;2.42;;;;;;;;;;5098626;28;20043;-87
2023/10/23 08:47:40;;;;;;;4.82;2.72;;;;;;;;;;5102363;28;20032;-88
2023/10/23 08:50:06;;;;;;;18.08;3.75;;;;;;;;;;5101966;28;20028;-89
2023/10/23 08:52:38;;;;;;;4.75;2.97;;;;;;;;;;5097509;28;20019;-86
2023/10/23 08:55:06;;;;;;;7.68;2.47;;;;;;;;;;5106254;28;20119;-87
2023/10/23 08:57:32;;;;;;;4.93;2.10;;;;;;;;;;5104039;28;20023;-86
2023/10/23 08:59:58;;;;;;;4.65;2.58;;;;;;;;;;5101677;28;20051;-88
2023/10/23 09:02:24;;;;;;;4.82;3.33;;;;;;;;;;5098445;28;20024;-86
2023/10/23 09:04:49;;;;;;;12.63;3.60;;;;;;;;;;5101121;28;20030;-87
2023/10/23 09:07:15;;;;;;;3.53;1.95;;;;;;;;;;5105756;28;20027;-87
2023/10/23 09:09:40;;;;;;;11.75;2.67;;;;;;;;;;5105417;28;20023;-85
2023/10/23 09:12:06;;;;;;;6.00;2.95;;;;;;;;;;5103193;28;20085;-86
2023/10/23 09:14:32;;;;;;;6.28;2.65;;;;;;;;;;5103043;28;20020;-86
2023/10/23 09:16:59;;;;;;;8.98;2.72;;;;;;;;;;5099252;28;20032;-87
2023/10/23 09:19:36;;;;;;;4.43;2.45;;;;;;;;;;5103420;28;20024;-84
2023/10/23 09:22:10;;;;;;;10.35;3.45;;;;;;;;;;5101880;28;20038;-86
2023/10/23 09:24:36;;;;;;;4.80;2.60;;;;;;;;;;5105842;28;20032;-86
2023/10/23 09:27:02;;;;;;;3.75;2.45;;;;;;;;;;5103070;28;20066;-88
2023/10/23 09:29:28;;;;;;;15.35;2.60;;;;;;;;;;5101270;28;20122;-86
2023/10/23 09:31:55;;;;;;;5.18;2.85;;;;;;;;;;5108097;28;20107;-89
2023/10/23 09:34:21;;;;;;;5.70;2.35;;;;;;;;;;5107162;28;20526;-87
2023/10/23 09:36:50;;;;;;;15.05;3.17;;;;;;;;;;5101370;28;20063;-86
2023/10/23 09:39:16;;;;;;;5.30;2.20;;;;;;;;;;5106526;28;20026;-88
2023/10/23 09:41:41;;;;;;;3.33;2.08;;;;;;;;;;5104451;28;20440;-87
2023/10/23 09:44:07;;;;;;;5.55;3.00;;;;;;;;;;5105179;28;20035;-86
2023/10/23 09:46:33;;;;;;;6.57;2.55;;;;;;;;;;5111750;28;20040;-85
2023/10/23 09:49:00;;;;;;;12.13;2.55;;;;;;;;;;5106153;28;20407;-86
2023/10/23 09:51:42;;;;;;;10.70;3.03;;;;;;;;;;5103410;28;20085;-86
2023/10/23 09:54:16;;;;;;;3.53;1.92;;;;;;;;;;5103310;28;20509;-88
2023/10/23 09:56:54;;;;;;;10.05;2.80;;;;;;;;;;5103802;28;20485;-85
2023/10/23 09:59:34;;;;;;;9.30;2.03;;;;;;;;;;5108511;28;20467;-88
2023/10/23 10:02:00;;;;;;;2.58;1.92;;;;;;;;;;5111078;28;20088;-87
2023/10/23 10:04:36;;;;;;;8.43;2.50;;;;;;;;;;5103683;28;20046;-87
2023/10/23 10:07:10;;;;;;;6.18;2.40;;;;;;;;;;5104745;28;20040;-86
2023/10/23 10:09:38;;;;;;;15.13;2.80;;;;;;;;;;5105711;28;20574;-86
2023/10/23 10:12:04;;;;;;;3.28;2.03;;;;;;;;;;5102166;28;20020;-88
2023/10/23 10:14:32;;;;;;;3.50;2.17;;;;;;;;;;5106417;28;20043;-86
2023/10/23 10:16:58;;;;;;;7.63;2.35;;;;;;;;;;5104839;28;20031;-85
2023/10/23 10:19:26;;;;;;;9.10;2.42;;;;;;;;;;5107951;28;20019;-86
2023/10/23 10:22:22;;;;;;;2.22;1.63;;;;;;;;;;5102523;28;20023;-86
2023/10/23 10:24:49;;;;;;;3.08;1.83;;;;;;;;;;5103300;28;20107;-84
2023/10/23 10:27:15;;;;;;;11.23;2.50;;;;;;;;;;5096364;28;20085;-86
2023/10/23 10:29:43;;;;;;;4.13;2.00;;;;;;;;;;5101525;28;20387;-87
2023/10/23 10:32:10;;;;;;;7.28;2.75;;;;;;;;;;5108347;28;20558;-86
2023/10/23 10:34:37;;;;;;;10.32;2.08;;;;;;;;;;5110643;28;20035;-86
2023/10/23 10:37:06;;;;;;;2.38;1.77;;;;;;;;;;5128344;27;20050;-86
2023/10/23 10:39:52;;;;;;;7.15;1.80;;;;;;;;;;5103147;27;20470;-85
2023/10/23 10:42:24;;;;;;;4.65;2.67;;;;;;;;;;5106346;27;20030;-86
2023/10/23 10:44:54;;;;;;;3.40;2.28;;;;;;;;;;5099662;27;20021;-86
2023/10/23 10:47:43;;;;;;;2.88;2.10;;;;;;;;;;5105843;28;20519;-86
2023/10/23 10:50:12;;;;;;;9.45;2.42;;;;;;;;;;5095365;27;20035;-85
2023/10/23 10:52:39;;;;;;;7.60;2.53;;;;;;;;;;5122811;27;20116;-85
2023/10/23 10:55:09;;;;;;;8.05;2.55;;;;;;;;;;5125856;27;20360;-86
2023/10/23 10:57:44;;;;;;;5.57;2.55;;;;;;;;;;5101435;27;20026;-85
2023/10/23 11:00:11;;;;;;;6.35;3.17;;;;;;;;;;5131461;27;20474;-84
2023/10/23 11:02:37;;;;;;;6.40;2.20;;;;;;;;;;5124914;27;20023;-87
2023/10/23 11:05:12;;;;;;;3.72;2.30;;;;;;;;;;5114232;27;20030;-86
2023/10/23 11:07:38;;;;;;;7.15;2.47;;;;;;;;;;5105376;27;20106;-86
2023/10/23 11:10:08;;;;;;;15.98;2.22;;;;;;;;;;5108006;27;20083;-86
2023/10/23 11:12:34;;;;;;;2.85;2.00;;;;;;;;;;5103342;27;20105;-86
2023/10/23 11:14:59;;;;;;;5.35;2.15;;;;;;;;;;5107732;27;20494;-88
2023/10/23 11:17:25;;;;;;;3.78;2.08;;;;;;;;;;5107559;27;20428;-86
2023/10/23 11:19:50;;;;;;;11.70;2.30;;;;;;;;;;5106042;27;20051;-87
2023/10/23 11:22:21;;;;;;;8.55;2.08;;;;;;;;;;5125919;27;20031;-88
2023/10/23 11:24:50;;;;;;;8.77;2.83;;;;;;;;;;5124080;27;20034;-86
2023/10/23 11:27:15;;;;;;;4.50;1.90;;;;;;;;;;5119299;27;20066;-87
2023/10/23 11:29:46;;;;;;;4.72;1.48;;;;;;;;;;5106986;27;20097;-86
2023/10/23 11:32:13;;;;;;;7.53;2.10;;;;;;;;;;5109276;28;20024;-87
2023/10/23 11:34:39;;;;;;;4.82;2.13;;;;;;;;;;5128246;27;20041;-89
2023/10/23 11:37:06;;;;;;;7.70;1.75;;;;;;;;;;5110302;27;20040;-87
2023/10/23 11:39:32;;;;;;;2.78;1.67;;;;;;;;;;5125517;27;20113;-87
2023/10/23 11:42:01;;;;;;;5.05;1.25;;;;;;;;;;5101113;27;20023;-86
2023/10/23 11:44:27;;;;;;;3.03;1.70;;;;;;;;;;5128452;27;20410;-87
2023/10/23 11:47:00;;;;;;;9.45;2.05;;;;;;;;;;5103378;28;20666;-86
2023/10/23 11:49:25;;;;;;;5.65;1.70;;;;;;;;;;5115475;27;20038;-85
2023/10/23 11:51:57;;;;;;;6.97;3.08;;;;;;;;;;5125869;27;20038;-87
2023/10/23 11:54:24;;;;;;;4.25;1.67;;;;;;;;;;5108710;28;20027;-85
2023/10/23 11:56:50;;;;;;;3.50;2.10;;;;;;;;;;5119397;27;20026;-84
2023/10/23 11:59:19;;;;;;;12.77;2.08;;;;;;;;;;5125520;27;20031;-84
2023/10/23 12:01:46;;;;;;;4.07;1.90;;;;;;;;;;5121345;27;20019;-83
2023/10/23 12:04:12;;;;;;;6.10;1.75;;;;;;;;;;5107701;27;20041;-85
2023/10/23 12:06:38;;;;;;;5.10;1.38;;;;;;;;;;5099353;28;20032;-85
2023/10/23 12:09:04;;;;;;;3.70;1.52;;;;;;;;;;5127296;27;20027;-86
2023/10/23 12:11:31;;;;;;;3.67;1.30;;;;;;;;;;5107173;27;20031;-84
2023/10/23 12:13:59;;;;;;;3.13;1.88;;;;;;;;;;5105844;27;20041;-84
2023/10/23 12:16:27;;;;;;;2.80;1.25;;;;;;;;;;5119440;27;20406;-85
2023/10/23 12:18:53;;;;;;;1.55;1.42;;;;;;;;;;5125321;27;22239;-85
2023/10/23 12:21:18;;;;;;;6.18;1.88;;;;;;;;;;5114187;27;20055;-84
2023/10/23 12:23:44;;;;;;;2.53;1.15;;;;;;;;;;5121253;27;20470;-84
2023/10/23 12:26:11;;;;;;;8.27;1.92;;;;;;;;;;5106529;27;20379;-86
2023/10/23 12:28:36;;;;;;;2.55;1.40;;;;;;;;;;5121272;27;20027;-85
2023/10/23 12:31:04;;;;;;;0.98;0.70;;;;;;;;;;5126824;27;20019;-87
2023/10/23 12:33:30;;;;;;;2.28;0.93;;;;;;;;;;5102224;28;20057;-84
2023/10/23 12:35:56;;;;;;;6.50;1.75;;;;;;;;;;5103211;28;20054;-82
2023/10/23 12:38:21;;;;;;;2.33;1.45;;;;;;;;;;5108521;28;20027;-81
2023/10/23 12:40:48;;;;;;;3.60;1.20;;;;;;;;;;5115200;28;20057;-84
2023/10/23 12:43:14;;;;;;;2.20;0.95;;;;;;;;;;5117563;28;20031;-84
2023/10/23 12:45:42;;;;;;;2.35;1.27;;;;;;;;;;5103648;28;20057;-83
2023/10/23 12:48:08;;;;;;;3.88;0.90;;;;;;;;;;5100603;28;20028;-84
2023/10/23 12:50:34;;;;;;;6.22;1.38;;;;;;;;;;5104742;28;20039;-85
2023/10/23 12:52:59;;;;;;;4.15;2.38;;;;;;;;;;5111216;28;20035;-83
2023/10/23 12:55:25;;;;;;;4.50;1.30;;;;;;;;;;5099388;28;20020;-85
2023/10/23 12:57:50;;;;;;;6.35;1.13;;;;;;;;;;5121228;27;20135;-83
2023/10/23 13:00:16;;;;;;;4.97;1.20;;;;;;;;;;5100807;28;20027;-83
2023/10/23 13:02:44;;;;;;;5.45;1.48;;;;;;;;;;5128880;27;20031;-84
2023/10/23 13:05:10;;;;;;;10.40;2.70;;;;;;;;;;5124267;27;20019;-84
2023/10/23 13:07:36;;;;;;;7.50;1.27;;;;;;;;;;5129051;27;20488;-84
2023/10/23 13:10:03;;;;;;;4.63;1.63;;;;;;;;;;5108013;27;20033;-83
2023/10/23 13:12:29;;;;;;;7.15;1.88;;;;;;;;;;5126015;27;20024;-83
2023/10/23 13:14:54;;;;;;;7.68;1.48;;;;;;;;;;5125196;27;20027;-82
2023/10/23 13:17:20;;;;;;;4.25;1.75;;;;;;;;;;5105136;27;20022;-83
2023/10/23 13:19:48;;;;;;;2.78;1.25;;;;;;;;;;5101296;27;20372;-84
2023/10/23 13:22:16;;;;;;;2.17;1.13;;;;;;;;;;5106027;27;20507;-83
2023/10/23 13:24:42;;;;;;;3.78;1.60;;;;;;;;;;5102211;27;20031;-85
2023/10/23 13:27:08;;;;;;;2.00;1.35;;;;;;;;;;5124822;27;20024;-84
2023/10/23 13:29:34;;;;;;;7.68;2.33;;;;;;;;;;5109142;27;20113;-83
2023/10/23 13:32:00;;;;;;;8.43;1.33;;;;;;;;;;5108634;27;20106;-84
2023/10/23 13:34:25;;;;;;;6.45;1.58;;;;;;;;;;5129072;27;20027;-84
2023/10/23 13:36:50;;;;;;;4.55;1.05;;;;;;;;;;5131237;27;20051;-83
2023/10/23 13:39:16;;;;;;;4.95;1.50;;;;;;;;;;5129417;27;20023;-85
2023/10/23 13:41:41;;;;;;;5.60;1.15;;;;;;;;;;5103610;27;20394;-82
2023/10/23 13:44:07;;;;;;;10.00;2.25;;;;;;;;;;5125859;27;20470;-81
2023/10/23 13:46:32;;;;;;;5.68;1.52;;;;;;;;;;5108825;27;20031;-86
2023/10/23 13:48:58;;;;;;;3.72;1.60;;;;;;;;;;5110142;27;20095;-83
2023/10/23 13:51:24;;;;;;;2.90;2.42;;;;;;;;;;5125283;27;20011;-84
2023/10/23 13:53:49;;;;;;;5.35;1.67;;;;;;;;;;5106692;27;20020;-83
2023/10/23 13:56:15;;;;;;;9.48;1.90;;;;;;;;;;5125216;27;20489;-82
2023/10/23 13:58:40;;;;;;;2.97;1.40;;;;;;;;;;5129232;27;20051;-86
2023/10/23 14:01:06;;;;;;;2.45;1.40;;;;;;;;;;5121558;27;20117;-85
2023/10/23 14:03:31;;;;;;;2.40;1.38;;;;;;;;;;5122449;27;20025;-82
2023/10/23 14:05:56;;;;;;;4.10;1.92;;;;;;;;;;5103397;27;20035;-84
2023/10/23 14:08:22;;;;;;;12.20;1.73;;;;;;;;;;5101280;28;20027;-82
2023/10/23 14:10:47;;;;;;;6.07;1.88;;;;;;;;;;5111809;27;20031;-84
2023/10/23 14:13:14;;;;;;;12.27;2.72;;;;;;;;;;5112522;27;20380;-84
2023/10/23 14:15:39;;;;;;;4.45;1.67;;;;;;;;;;5102424;27;20035;-85
2023/10/23 14:18:04;;;;;;;1.60;0.95;;;;;;;;;;5131563;27;20030;-85
2023/10/23 14:20:30;;;;;;;3.97;1.17;;;;;;;;;;5106019;27;20489;-84
2023/10/23 14:22:55;;;;;;;3.53;1.77;;;;;;;;;;5110879;27;20134;-86
2023/10/23 14:25:21;;;;;;;1.15;0.95;;;;;;;;;;5125251;27;20034;-85
2023/10/23 14:27:46;;;;;;;5.60;1.77;;;;;;;;;;5132709;27;20054;-83
2023/10/23 14:30:12;;;;;;;2.53;1.55;;;;;;;;;;5125998;27;20030;-83
2023/10/23 14:32:42;;;;;;;6.55;1.75;;;;;;;;;;5111646;27;20372;-83
2023/10/23 14:35:07;;;;;;;4.03;1.83;;;;;;;;;;5127603;27;20492;-83
2023/10/23 14:37:33;;;;;;;2.15;1.27;;;;;;;;;;5123045;27;20023;-83
2023/10/23 14:39:59;;;;;;;7.28;2.10;;;;;;;;;;5107435;27;20042;-84
2023/10/23 14:42:24;;;;;;;13.70;2.22;;;;;;;;;;5112661;27;20479;-83
2023/10/23 14:44:49;;;;;;;2.85;1.55;;;;;;;;;;5117888;27;20100;-83
2023/10/23 14:47:15;;;;;;;3.65;1.80;;;;;;;;;;5106636;27;20027;-83
2023/10/23 14:49:40;;;;;;;5.07;1.20;;;;;;;;;;5105568;27;20019;-83
2023/10/23 14:52:06;;;;;;;10.82;2.38;;;;;;;;;;5113631;27;20383;-83
2023/10/23 14:54:31;;;;;;;10.80;2.22;;;;;;;;;;5124325;27;20486;-83
2023/10/23 14:56:57;;;;;;;8.30;1.67;;;;;;;;;;5106601;27;20039;-83
2023/10/23 14:59:22;;;;;;;2.78;1.75;;;;;;;;;;5106813;27;20031;-85
2023/10/23 15:01:52;;;;;;;5.18;1.40;;;;;;;;;;5126087;27;20019;-83
2023/10/23 15:04:18;;;;;;;11.73;2.28;;;;;;;;;;5127429;27;20417;-85
2023/10/23 15:06:43;;;;;;;6.90;2.60;;;;;;;;;;5136261;27;20033;-86
2023/10/23 15:09:08;;;;;;;2.88;1.52;;;;;;;;;;5104163;27;20019;-84
2023/10/23 15:11:34;;;;;;;2.15;1.52;;;;;;;;;;5122955;27;20051;-85
2023/10/23 15:13:59;;;;;;;3.35;1.42;;;;;;;;;;5099418;27;20110;-83
2023/10/23 15:16:25;;;;;;;11.20;2.90;;;;;;;;;;5102361;27;20026;-85
2023/10/23 15:18:51;;;;;;;1.88;1.20;;;;;;;;;;5116827;27;20103;-85
2023/10/23 15:21:17;;;;;;;1.52;1.00;;;;;;;;;;5118874;27;20027;-83
2023/10/23 15:23:43;;;;;;;3.85;2.00;;;;;;;;;;5102033;27;20568;-86
2023/10/23 15:26:08;;;;;;;2.70;1.10;;;;;;;;;;5105164;27;20026;-84
2023/10/23 15:28:34;;;;;;;4.63;1.73;;;;;;;;;;5103929;27;20487;-84
2023/10/23 15:31:00;;;;;;;1.70;1.23;;;;;;;;;;5125454;27;20032;-85
2023/10/23 15:33:27;;;;;;;1.20;1.10;;;;;;;;;;5120631;27;20087;-83
2023/10/23 15:35:56;;;;;;;4.60;1.10;;;;;;;;;;5100482;27;20044;-85
2023/10/23 15:38:24;;;;;;;3.17;1.75;;;;;;;;;;5104038;27;20387;-84
2023/10/23 15:40:52;;;;;;;2.80;1.17;;;;;;;;;;5111486;27;20080;-85
2023/10/23 15:43:21;;;;;;;8.60;2.28;;;;;;;;;;5125985;27;20032;-85
2023/10/23 15:45:50;;;;;;;;;;;;;;;;;;5100919;28;20429;-85
2023/10/23 15:48:20;;;;;;;2.92;1.73;;;;;;;;;;5107384;27;19915;-85
2023/10/23 15:50:45;;;;;;;6.18;2.95;;;;;;;;;;5125308;27;20035;-84
2023/10/23 15:53:11;;;;;;;5.70;1.15;;;;;;;;;;5104054;27;20527;-82
2023/10/23 15:55:36;;;;;;;3.58;1.25;;;;;;;;;;5097428;28;20023;-85
2023/10/23 15:58:03;;;;;;;4.22;1.08;;;;;;;;;;5104321;28;20412;-84
2023/10/23 16:00:29;;;;;;;5.50;1.30;;;;;;;;;;5104983;27;20023;-83
2023/10/23 16:02:55;;;;;;;9.27;1.60;;;;;;;;;;5099998;27;20031;-83
2023/10/23 16:05:21;;;;;;;3.08;1.40;;;;;;;;;;5106128;27;20467;-85
2023/10/23 16:07:47;;;;;;;3.55;1.65;;;;;;;;;;5127426;27;20391;-83
2023/10/23 16:10:13;;;;;;;3.03;1.95;;;;;;;;;;5100718;28;20023;-84
2023/10/23 16:12:40;;;;;;;5.55;1.27;;;;;;;;;;5117035;27;20110;-84
2023/10/23 16:15:06;;;;;;;7.20;1.73;;;;;;;;;;5124435;27;20149;-85
2023/10/23 16:17:32;;;;;;;4.00;1.75;;;;;;;;;;5103264;27;20043;-87
2023/10/23 16:19:58;;;;;;;15.00;2.15;;;;;;;;;;5121485;27;20032;-86
2023/10/23 16:22:23;;;;;;;6.65;1.52;;;;;;;;;;5122852;27;20513;-85
2023/10/23 16:24:48;;;;;;;1.45;1.15;;;;;;;;;;5101813;27;20023;-86
2023/10/23 16:27:14;;;;;;;3.05;0.98;;;;;;;;;;5123915;27;20038;-84
2023/10/23 16:29:40;;;;;;;1.55;0.93;;;;;;;;;;5125674;27;20035;-85
2023/10/23 16:32:05;;;;;;;6.30;1.48;;;;;;;;;;5119675;27;20023;-85
2023/10/23 16:34:31;;;;;;;2.03;1.15;;;;;;;;;;5104747;28;20033;-85
2023/10/23 16:36:57;;;;;;;1.58;1.00;;;;;;;;;;5117386;28;20044;-86
2023/10/23 16:39:25;;;;;;;5.22;1.38;;;;;;;;;;5123961;28;20115;-85
